Time;durP1;ratioP1;P1;durP2;ratioP2;P2;SDS_P1;SDS_P2;PMS_P1;PMS_P2;Temp;Humidity;BMP_temperature;BMP_pressure;BME280_temperature;BME280_humidity;BME280_pressure;Samples;Min_cycle;Max_cycle;Signal;HPM_P1;HPM_P2
2022/11/19 00:01:56;;;;;;;14.40;9.98;;;1.80;99.90;;;;;;5028118;28;20449;-40
2022/11/19 00:04:25;;;;;;;14.00;10.02;;;1.80;99.90;;;;;;5018712;28;20109;-36
2022/11/19 00:06:51;;;;;;;17.35;10.00;;;1.80;99.90;;;;;;4996102;28;20054;-39
2022/11/19 00:09:18;;;;;;;14.45;9.65;;;1.80;99.90;;;;;;5013587;28;20081;-39
2022/11/19 00:14:29;;;;;;;15.05;9.68;;;1.80;99.90;;;;;;5010227;28;20136;-37
2022/11/19 00:16:56;;;;;;;13.32;8.88;;;1.80;99.90;;;;;;4992872;28;20058;-40
2022/11/19 00:19:24;;;;;;;12.50;9.15;;;1.90;99.90;;;;;;4995069;28;20143;-40
2022/11/19 00:21:51;;;;;;;13.90;9.02;;;1.80;99.90;;;;;;5005810;28;20100;-39
2022/11/19 00:24:18;;;;;;;13.30;9.10;;;1.80;99.90;;;;;;4979667;28;20565;-39
2022/11/19 00:26:44;;;;;;;14.77;9.40;;;1.80;99.90;;;;;;5012023;28;20056;-38
2022/11/19 00:29:12;;;;;;;12.60;8.77;;;1.80;99.90;;;;;;5027693;28;20049;-40
2022/11/19 00:31:38;;;;;;;11.70;8.30;;;1.80;99.90;;;;;;5015668;28;20097;-38
2022/11/19 00:34:05;;;;;;;11.82;8.15;;;1.80;99.90;;;;;;5002181;28;20042;-39
2022/11/19 00:36:33;;;;;;;11.18;7.45;;;1.80;99.90;;;;;;5012144;28;20069;-40
2022/11/19 00:39:00;;;;;;;12.52;7.88;;;1.80;99.90;;;;;;5012306;28;20137;-39
2022/11/19 00:41:27;;;;;;;11.18;7.68;;;1.80;99.90;;;;;;4987719;28;20116;-38
2022/11/19 00:43:54;;;;;;;10.95;8.05;;;1.80;99.90;;;;;;4992039;28;20061;-40
2022/11/19 00:46:22;;;;;;;10.10;7.68;;;1.80;99.90;;;;;;5012359;28;20049;-40
2022/11/19 00:48:49;;;;;;;9.57;7.18;;;1.80;99.90;;;;;;5012501;28;20409;-40
2022/11/19 00:51:16;;;;;;;8.60;6.60;;;1.80;99.90;;;;;;5012411;28;20050;-39
2022/11/19 00:53:44;;;;;;;10.93;6.93;;;1.80;99.90;;;;;;5011557;28;20100;-39
2022/11/19 00:56:12;;;;;;;10.45;6.90;;;1.80;99.90;;;;;;5006186;28;20085;-41
2022/11/19 00:58:39;;;;;;;8.60;6.13;;;1.70;99.90;;;;;;4994509;28;20062;-40
2022/11/19 01:01:06;;;;;;;9.13;6.20;;;1.80;99.90;;;;;;4994111;28;20137;-39
2022/11/19 01:03:33;;;;;;;9.57;6.30;;;1.70;99.90;;;;;;5011489;28;20041;-39
2022/11/19 01:06:00;;;;;;;8.80;6.35;;;1.60;99.90;;;;;;5001665;28;20061;-39
2022/11/19 01:08:27;;;;;;;8.48;5.70;;;1.70;99.90;;;;;;5012348;28;20077;-39
2022/11/19 01:10:55;;;;;;;8.57;5.97;;;1.70;99.90;;;;;;5009521;28;20108;-39
2022/11/19 01:13:37;;;;;;;9.00;5.72;;;1.70;99.90;;;;;;4998440;28;20455;-39
2022/11/19 01:16:05;;;;;;;7.75;5.85;;;1.60;99.90;;;;;;5011093;28;20050;-37
2022/11/19 01:18:32;;;;;;;11.43;5.85;;;1.60;99.90;;;;;;5008977;28;20046;-40
2022/11/19 01:20:59;;;;;;;6.57;4.68;;;1.60;99.90;;;;;;5002147;28;20104;-40
2022/11/19 01:23:26;;;;;;;7.70;5.22;;;1.60;99.90;;;;;;5008431;28;20192;-39
2022/11/19 01:25:53;;;;;;;7.07;5.07;;;1.60;99.90;;;;;;5015036;28;20092;-39
2022/11/19 01:28:21;;;;;;;7.75;5.88;;;1.60;99.90;;;;;;5004181;28;20490;-40
2022/11/19 01:30:47;;;;;;;11.68;5.70;;;1.50;99.90;;;;;;5012910;28;20159;-40
2022/11/19 01:33:14;;;;;;;7.25;5.60;;;1.50;99.90;;;;;;5008705;28;20049;-41
2022/11/19 01:35:41;;;;;;;6.53;5.10;;;1.50;99.90;;;;;;4998522;28;20132;-40
2022/11/19 01:38:08;;;;;;;6.88;4.72;;;1.50;99.90;;;;;;4993934;28;20085;-39
2022/11/19 01:40:41;;;;;;;6.65;4.82;;;1.50;99.90;;;;;;5003333;28;20261;-39
2022/11/19 01:43:10;;;;;;;10.63;5.88;;;1.50;99.90;;;;;;5013472;28;20350;-40
2022/11/19 01:45:39;;;;;;;6.65;5.22;;;1.50;99.90;;;;;;5016389;28;20446;-40
2022/11/19 01:48:07;;;;;;;6.47;5.00;;;1.40;99.90;;;;;;5020529;28;20092;-40
2022/11/19 01:50:37;;;;;;;6.43;5.18;;;1.40;99.90;;;;;;5018766;28;20046;-41
2022/11/19 01:53:04;;;;;;;8.82;5.38;;;1.40;99.90;;;;;;4997247;28;20054;-40
2022/11/19 01:55:30;;;;;;;7.32;5.15;;;1.40;99.90;;;;;;5015244;28;20129;-41
2022/11/19 01:57:59;;;;;;;8.27;5.68;;;1.30;99.90;;;;;;5010706;28;20132;-41
2022/11/19 02:00:26;;;;;;;7.97;5.45;;;1.30;99.90;;;;;;5007929;28;20073;-41
2022/11/19 02:02:54;;;;;;;7.70;5.32;;;1.30;99.90;;;;;;4997967;28;20086;-41
2022/11/19 02:05:21;;;;;;;7.72;5.35;;;1.20;99.90;;;;;;4977884;28;20106;-41
2022/11/19 02:07:51;;;;;;;8.82;4.97;;;1.20;99.90;;;;;;4993788;28;20046;-43
2022/11/19 02:10:18;;;;;;;9.32;5.97;;;1.20;99.90;;;;;;4982768;28;20106;-41
2022/11/19 02:12:47;;;;;;;6.68;5.30;;;1.10;99.90;;;;;;4990000;28;20570;-43
2022/11/19 02:15:19;;;;;;;7.35;5.32;;;1.10;99.90;;;;;;4993382;28;20517;-42
2022/11/19 02:18:14;;;;;;;9.82;5.68;;;1.10;99.90;;;;;;4978987;28;20100;-43
2022/11/19 02:20:45;;;;;;;7.25;4.95;;;1.00;99.90;;;;;;4989009;28;20055;-45
2022/11/19 02:23:36;;;;;;;7.55;5.25;;;1.10;99.90;;;;;;4976511;28;20138;-43
2022/11/19 02:26:13;;;;;;;9.38;5.72;;;1.00;99.90;;;;;;4980495;28;20109;-44
2022/11/19 02:28:40;;;;;;;9.35;5.55;;;1.00;99.90;;;;;;4995841;28;20082;-42
2022/11/19 02:31:11;;;;;;;8.70;5.68;;;1.00;99.90;;;;;;4994628;28;20494;-42
2022/11/19 02:33:42;;;;;;;8.60;5.68;;;0.90;99.90;;;;;;4992955;28;20050;-43
2022/11/19 02:36:11;;;;;;;7.18;5.38;;;0.90;99.90;;;;;;4976583;28;20082;-42
2022/11/19 02:38:39;;;;;;;8.18;5.30;;;0.90;99.90;;;;;;4994789;28;20097;-41
2022/11/19 02:41:32;;;;;;;7.90;5.78;;;0.90;99.90;;;;;;4994203;28;20475;-44
2022/11/19 02:44:57;;;;;;;8.90;5.25;;;0.80;99.90;;;;;;4994722;28;20145;-43
2022/11/19 02:46:49;;;;;;;8.05;5.75;;;0.80;99.90;;;;;;4971393;28;20050;-41
2022/11/19 02:49:17;;;;;;;7.55;5.40;;;0.80;99.90;;;;;;4988640;28;20058;-42
2022/11/19 02:51:43;;;;;;;7.35;5.40;;;0.80;99.90;;;;;;4982314;28;20102;-42
2022/11/19 02:54:10;;;;;;;7.78;5.82;;;0.80;99.90;;;;;;4984320;28;20093;-40
2022/11/19 02:56:48;;;;;;;8.00;5.72;;;0.80;99.90;;;;;;4994330;28;20047;-42
2022/11/19 03:04:45;;;;;;;8.30;5.60;;;0.80;99.90;;;;;;4989245;28;20315;-43
2022/11/19 03:07:14;;;;;;;8.95;5.38;;;0.70;99.90;;;;;;4995233;28;20084;-42
2022/11/19 03:09:42;;;;;;;6.65;4.78;;;0.70;99.90;;;;;;4965488;28;20050;-41
2022/11/19 03:12:11;;;;;;;9.35;6.03;;;0.70;99.90;;;;;;4972221;28;20137;-37
2022/11/19 03:17:30;;;;;;;7.43;5.18;;;0.70;99.90;;;;;;4994887;28;20054;-40
2022/11/19 03:20:01;;;;;;;8.15;5.72;;;0.70;99.90;;;;;;4976876;28;20438;-40
2022/11/19 03:22:29;;;;;;;7.15;4.88;;;0.70;99.90;;;;;;4993338;28;20050;-42
2022/11/19 03:24:58;;;;;;;8.55;5.25;;;0.60;99.90;;;;;;4993639;28;20054;-41
2022/11/19 03:27:25;;;;;;;6.80;5.07;;;0.60;99.90;;;;;;4976868;28;20137;-41
2022/11/19 03:29:54;;;;;;;10.02;5.30;;;0.60;99.90;;;;;;4982706;28;20468;-40
2022/11/19 03:32:22;;;;;;;8.65;5.10;;;0.50;99.90;;;;;;4993952;28;20058;-41
2022/11/19 03:34:51;;;;;;;7.75;5.70;;;0.50;99.90;;;;;;4993547;28;20101;-40
2022/11/19 03:37:19;;;;;;;6.93;4.70;;;0.50;99.90;;;;;;4976606;28;20186;-40
2022/11/19 03:39:46;;;;;;;5.43;4.50;;;0.50;99.90;;;;;;4985813;28;20054;-39
2022/11/19 03:42:12;;;;;;;6.65;4.80;;;0.50;99.90;;;;;;4979674;28;20137;-40
2022/11/19 03:44:40;;;;;;;8.13;5.03;;;0.40;99.90;;;;;;4993403;28;20081;-42
2022/11/19 03:47:09;;;;;;;7.10;4.68;;;0.40;99.90;;;;;;4992299;28;20182;-40
2022/11/19 03:49:38;;;;;;;9.23;5.53;;;0.40;99.90;;;;;;4976625;28;20058;-41
2022/11/19 03:52:09;;;;;;;8.00;5.47;;;0.40;99.90;;;;;;4976371;28;20061;-39
2022/11/19 03:54:35;;;;;;;6.90;5.22;;;0.40;99.90;;;;;;4969984;28;20050;-41
2022/11/19 03:57:02;;;;;;;7.35;5.05;;;0.20;99.90;;;;;;4992639;28;20138;-39
2022/11/19 03:59:29;;;;;;;6.88;4.75;;;0.30;99.90;;;;;;4985188;28;20097;-42
2022/11/19 04:01:57;;;;;;;6.82;5.00;;;0.20;99.90;;;;;;4966337;28;20130;-41
2022/11/19 04:04:36;;;;;;;8.35;5.55;;;0.20;99.90;;;;;;4968756;28;20050;-39
2022/11/19 04:07:08;;;;;;;7.43;5.13;;;0.10;99.90;;;;;;4992898;28;20059;-40
2022/11/19 04:09:35;;;;;;;9.05;5.43;;;0.10;99.90;;;;;;4992759;28;20074;-40
2022/11/19 04:12:02;;;;;;;7.20;5.45;;;0.10;99.90;;;;;;4992640;28;20136;-40
2022/11/19 04:14:29;;;;;;;7.32;5.18;;;0.10;99.90;;;;;;4975752;28;20074;-40
2022/11/19 04:16:55;;;;;;;8.52;5.68;;;0.10;99.90;;;;;;4991482;28;20082;-42
2022/11/19 04:19:22;;;;;;;9.13;5.47;;;0.00;99.90;;;;;;4975221;28;20089;-41
2022/11/19 04:21:49;;;;;;;7.53;5.22;;;0.00;99.90;;;;;;4984360;28;20086;-41
2022/11/19 04:24:17;;;;;;;8.30;5.43;;;0.00;99.90;;;;;;4983888;28;20117;-40
2022/11/19 04:26:44;;;;;;;9.05;6.20;;;0.00;99.90;;;;;;4973585;28;20101;-41
2022/11/19 04:29:11;;;;;;;8.45;5.05;;;-0.10;99.90;;;;;;4991793;28;20046;-39
2022/11/19 04:31:37;;;;;;;7.68;5.18;;;-0.10;99.90;;;;;;4991572;28;20557;-41
2022/11/19 04:34:04;;;;;;;8.68;5.50;;;-0.10;99.90;;;;;;4960502;28;20506;-40
2022/11/19 04:36:31;;;;;;;9.00;5.35;;;-0.10;99.90;;;;;;4973707;28;20435;-38
2022/11/19 04:38:58;;;;;;;9.68;5.20;;;-0.10;99.90;;;;;;4982499;28;20055;-40
2022/11/19 04:41:26;;;;;;;7.55;5.68;;;-0.10;99.90;;;;;;4987993;28;20046;-40
2022/11/19 04:43:53;;;;;;;8.93;5.45;;;-0.20;99.90;;;;;;4985913;28;20047;-41
2022/11/19 04:46:20;;;;;;;7.85;5.20;;;-0.20;99.90;;;;;;4983782;28;20117;-40
2022/11/19 04:48:46;;;;;;;7.38;5.60;;;-0.10;99.90;;;;;;4972566;28;20118;-40
2022/11/19 04:51:13;;;;;;;8.10;5.20;;;-0.20;99.90;;;;;;4986616;28;20074;-41
2022/11/19 04:53:40;;;;;;;6.45;5.18;;;-0.20;99.90;;;;;;4992753;28;20089;-41
2022/11/19 04:56:07;;;;;;;6.75;5.03;;;-0.20;99.90;;;;;;4991722;28;20474;-41
2022/11/19 04:58:35;;;;;;;8.52;6.10;;;-0.20;99.90;;;;;;4973325;28;20050;-40
2022/11/19 05:01:02;;;;;;;9.02;5.85;;;-0.30;99.90;;;;;;4966917;28;20388;-41
2022/11/19 05:03:29;;;;;;;7.55;5.43;;;-0.30;99.90;;;;;;4985823;28;20078;-39
2022/11/19 05:05:56;;;;;;;7.55;5.70;;;-0.30;99.90;;;;;;4975880;28;20061;-40
2022/11/19 05:08:22;;;;;;;7.72;5.32;;;-0.30;99.90;;;;;;4990290;28;20050;-40
2022/11/19 05:10:49;;;;;;;9.48;5.90;;;-0.40;99.90;;;;;;4973656;28;20121;-40
2022/11/19 05:13:16;;;;;;;7.50;5.43;;;-0.30;99.90;;;;;;4961245;28;20078;-40
2022/11/19 05:15:44;;;;;;;7.63;5.40;;;-0.40;99.90;;;;;;4992075;28;20046;-40
2022/11/19 05:18:11;;;;;;;8.60;6.13;;;-0.40;99.90;;;;;;4974484;28;20051;-40
2022/11/19 05:20:38;;;;;;;7.80;5.55;;;-0.40;99.90;;;;;;4990207;28;20565;-40
2022/11/19 05:23:05;;;;;;;6.25;5.20;;;-0.40;99.90;;;;;;4991580;28;20050;-41
2022/11/19 05:25:32;;;;;;;8.40;5.93;;;-0.40;99.90;;;;;;4992837;28;20082;-39
2022/11/19 05:27:58;;;;;;;8.00;5.35;;;-0.50;99.90;;;;;;4991689;28;20054;-40
2022/11/19 05:30:25;;;;;;;7.93;5.78;;;-0.50;99.90;;;;;;4979769;28;20125;-41
2022/11/19 05:32:53;;;;;;;7.80;6.03;;;-0.50;99.90;;;;;;4992299;28;20054;-41
2022/11/19 05:35:20;;;;;;;8.48;5.95;;;-0.50;99.90;;;;;;4975108;28;20096;-42
2022/11/19 05:37:48;;;;;;;9.15;5.95;;;-0.60;99.90;;;;;;4991643;28;20391;-39
2022/11/19 05:40:15;;;;;;;11.32;5.68;;;-0.60;99.90;;;;;;4982632;28;20090;-40
2022/11/19 05:42:42;;;;;;;7.47;5.78;;;-0.60;99.90;;;;;;4964683;28;20512;-40
2022/11/19 05:45:10;;;;;;;8.05;6.10;;;-0.60;99.90;;;;;;4985483;28;20467;-41
2022/11/19 05:47:36;;;;;;;10.98;7.22;;;-0.60;99.90;;;;;;4992263;28;20082;-42
2022/11/19 05:50:06;;;;;;;8.40;6.32;;;-0.60;99.90;;;;;;4982002;28;20054;-41
2022/11/19 05:52:32;;;;;;;10.98;6.70;;;-0.60;99.90;;;;;;4987989;28;20081;-40
2022/11/19 05:54:59;;;;;;;9.15;6.80;;;-0.70;99.90;;;;;;4976750;28;20105;-41
2022/11/19 05:57:26;;;;;;;8.52;6.30;;;-0.70;99.90;;;;;;4956114;28;20446;-41
2022/11/19 05:59:53;;;;;;;8.88;6.97;;;-0.70;99.90;;;;;;4987664;28;20125;-41
2022/11/19 06:02:19;;;;;;;9.15;6.45;;;-0.70;99.90;;;;;;4988418;28;20090;-40
2022/11/19 06:04:46;;;;;;;7.72;6.03;;;-0.70;99.90;;;;;;4977943;28;20054;-38
2022/11/19 06:07:14;;;;;;;9.30;6.80;;;-0.80;99.90;;;;;;4990885;28;20470;-39
2022/11/19 06:09:41;;;;;;;13.32;7.07;;;-0.80;99.90;;;;;;4985043;28;20105;-42
2022/11/19 06:12:08;;;;;;;8.68;6.65;;;-0.80;99.90;;;;;;4972599;28;20482;-39
2022/11/19 06:14:35;;;;;;;9.73;7.25;;;-0.80;99.90;;;;;;4993596;28;20082;-42
2022/11/19 06:17:01;;;;;;;11.25;7.35;;;-0.80;99.90;;;;;;4995966;28;20092;-39
2022/11/19 06:19:34;;;;;;;9.70;7.55;;;-0.90;99.90;;;;;;4976528;28;20548;-42
2022/11/19 06:22:00;;;;;;;10.82;7.50;;;-0.70;99.90;;;;;;4976412;28;20051;-41
2022/11/19 06:24:28;;;;;;;10.48;7.15;;;-0.70;99.90;;;;;;4972106;28;20522;-41
2022/11/19 06:26:55;;;;;;;11.02;8.15;;;-0.90;99.90;;;;;;4995301;28;20054;-41
2022/11/19 06:29:22;;;;;;;14.35;8.68;;;-0.90;99.90;;;;;;4993499;28;20085;-41
2022/11/19 06:31:49;;;;;;;11.40;8.18;;;-1.00;99.90;;;;;;4988659;28;20046;-39
2022/11/19 06:34:16;;;;;;;12.52;8.25;;;-0.90;99.90;;;;;;4994811;28;20465;-41
2022/11/19 06:36:42;;;;;;;11.38;8.43;;;-1.00;99.90;;;;;;4995042;28;20081;-39
2022/11/19 06:39:09;;;;;;;12.30;8.98;;;-0.90;99.90;;;;;;4977403;28;20154;-42
2022/11/19 06:41:37;;;;;;;13.25;9.30;;;-1.00;99.90;;;;;;4981807;28;20078;-41
2022/11/19 06:44:04;;;;;;;13.98;10.30;;;-1.00;99.90;;;;;;4993833;28;20050;-42
2022/11/19 06:46:31;;;;;;;13.80;9.30;;;-1.00;99.90;;;;;;4995492;28;20121;-41
2022/11/19 06:48:58;;;;;;;14.30;8.85;;;-1.00;99.90;;;;;;4985063;28;20486;-41
2022/11/19 06:51:25;;;;;;;13.48;9.30;;;-1.00;99.90;;;;;;4995172;28;20506;-43
2022/11/19 06:53:51;;;;;;;12.95;9.15;;;-1.00;99.90;;;;;;4994010;28;20054;-43
2022/11/19 06:56:18;;;;;;;14.43;9.82;;;-1.00;99.90;;;;;;4981650;28;20050;-41
2022/11/19 06:58:46;;;;;;;13.93;9.40;;;-1.10;99.90;;;;;;4987179;28;20521;-42
2022/11/19 07:01:14;;;;;;;14.38;9.05;;;-1.00;99.90;;;;;;4965814;28;20149;-42
2022/11/19 07:03:41;;;;;;;13.02;9.88;;;-1.10;99.90;;;;;;4989687;28;20137;-42
2022/11/19 07:06:07;;;;;;;14.20;10.20;;;-1.10;99.90;;;;;;4993168;28;20043;-41
2022/11/19 07:08:34;;;;;;;13.55;9.80;;;-1.10;99.90;;;;;;4977524;28;20455;-40
2022/11/19 07:11:24;;;;;;;14.18;9.52;;;-1.10;99.90;;;;;;4982827;28;20050;-41
2022/11/19 07:13:58;;;;;;;13.93;9.57;;;-1.10;99.90;;;;;;4992485;28;20054;-40
2022/11/19 07:16:27;;;;;;;15.05;9.32;;;-1.10;99.90;;;;;;4991343;28;20058;-41
2022/11/19 07:18:58;;;;;;;14.43;10.55;;;-1.10;99.90;;;;;;4993902;28;20050;-41
2022/11/19 07:21:25;;;;;;;13.07;9.88;;;-1.10;99.90;;;;;;4987719;28;20050;-42
2022/11/19 07:23:52;;;;;;;15.68;9.75;;;-1.10;99.90;;;;;;5009929;28;20097;-42
2022/11/19 07:26:18;;;;;;;17.63;11.05;;;-1.10;99.90;;;;;;4993755;28;20050;-41
2022/11/19 07:28:45;;;;;;;13.73;10.07;;;-1.20;99.90;;;;;;4984856;28;20467;-42
2022/11/19 07:31:13;;;;;;;16.83;11.15;;;-1.20;99.90;;;;;;4975134;28;20113;-42
2022/11/19 07:33:40;;;;;;;14.52;9.88;;;-1.20;99.90;;;;;;4984594;28;20074;-40
2022/11/19 07:36:08;;;;;;;15.13;10.20;;;-1.10;99.90;;;;;;4960938;28;20125;-41
2022/11/19 07:38:35;;;;;;;15.75;10.57;;;-1.20;99.90;;;;;;4975214;28;20505;-41
2022/11/19 07:42:47;;;;;;;15.35;9.75;;;-1.20;99.90;;;;;;4993271;28;20459;-40
2022/11/19 07:43:48;;;;;;;15.73;10.48;;;-1.10;99.90;;;;;;4976572;28;20149;-39
2022/11/19 07:46:16;;;;;;;14.75;10.63;;;-1.20;99.90;;;;;;4977015;28;20142;-41
2022/11/19 07:48:43;;;;;;;15.77;10.63;;;-1.20;99.90;;;;;;4985672;28;20149;-41
2022/11/19 07:51:09;;;;;;;14.60;10.73;;;-1.20;99.90;;;;;;4980833;28;20093;-41
2022/11/19 07:53:36;;;;;;;16.48;10.27;;;-1.10;99.90;;;;;;4993688;28;20077;-41
2022/11/19 07:56:03;;;;;;;16.15;11.02;;;-1.10;99.90;;;;;;4993363;28;20058;-42
2022/11/19 07:58:30;;;;;;;15.15;10.52;;;-1.10;99.90;;;;;;4975996;28;20438;-39
2022/11/19 08:00:57;;;;;;;14.38;11.32;;;-1.10;99.90;;;;;;4975996;28;20074;-40
2022/11/19 08:03:25;;;;;;;13.68;10.02;;;-1.10;99.90;;;;;;4992483;28;20054;-40
2022/11/19 08:05:52;;;;;;;14.23;10.40;;;-1.10;99.90;;;;;;4993150;28;20122;-41
2022/11/19 08:08:19;;;;;;;16.92;11.55;;;-1.00;99.90;;;;;;4991684;28;20074;-38
2022/11/19 08:10:45;;;;;;;13.45;10.68;;;-1.00;99.90;;;;;;4980102;28;20058;-41
2022/11/19 08:13:12;;;;;;;13.25;10.23;;;-1.00;99.90;;;;;;4977806;28;20098;-41
2022/11/19 08:15:39;;;;;;;15.75;11.20;;;-1.00;99.90;;;;;;4973625;28;20239;-40
2022/11/19 08:18:11;;;;;;;16.08;10.98;;;-0.90;99.90;;;;;;4957548;28;20050;-39
2022/11/19 08:20:39;;;;;;;14.35;11.13;;;-0.90;99.90;;;;;;4964647;28;20078;-41
2022/11/19 08:23:06;;;;;;;15.35;10.07;;;-0.90;99.90;;;;;;4992934;28;20046;-41
2022/11/19 08:25:33;;;;;;;16.73;10.57;;;-0.90;99.90;;;;;;4992216;28;20062;-41
2022/11/19 08:28:00;;;;;;;14.73;11.13;;;-0.80;99.90;;;;;;4993380;28;20085;-40
2022/11/19 08:30:27;;;;;;;16.50;10.88;;;-0.80;99.90;;;;;;4997990;28;20050;-41
2022/11/19 08:32:53;;;;;;;13.65;9.77;;;-0.80;99.90;;;;;;4993804;28;20046;-39
2022/11/19 08:35:20;;;;;;;15.25;11.10;;;-0.80;99.90;;;;;;4975956;28;20085;-41
2022/11/19 08:37:50;;;;;;;15.40;10.98;;;-0.80;99.90;;;;;;4979775;28;20058;-40
2022/11/19 08:40:17;;;;;;;14.23;10.30;;;-0.70;99.90;;;;;;4956819;28;20463;-43
2022/11/19 08:43:00;;;;;;;15.52;10.55;;;-0.70;99.90;;;;;;4956349;28;20055;-41
2022/11/19 08:45:31;;;;;;;15.48;10.13;;;-0.60;99.90;;;;;;4973988;28;20458;-40
2022/11/19 08:47:59;;;;;;;15.48;10.38;;;-0.50;99.90;;;;;;4983714;28;20135;-39
2022/11/19 08:50:26;;;;;;;16.65;10.50;;;-0.50;99.90;;;;;;4975405;28;20089;-41
2022/11/19 08:52:58;;;;;;;14.13;10.32;;;-0.50;99.90;;;;;;4975986;28;20082;-40
2022/11/19 08:55:25;;;;;;;15.73;11.07;;;-0.40;99.90;;;;;;4975373;28;20130;-40
2022/11/19 08:57:51;;;;;;;14.18;10.15;;;-0.30;99.90;;;;;;4970103;28;20475;-41
2022/11/19 09:00:19;;;;;;;14.43;8.93;;;-0.30;99.90;;;;;;4956417;28;20090;-41
2022/11/19 09:02:46;;;;;;;13.75;10.40;;;-0.20;99.90;;;;;;4973252;28;20054;-39
2022/11/19 09:05:13;;;;;;;14.80;10.40;;;-0.10;99.90;;;;;;4985051;28;20051;-41
2022/11/19 09:07:40;;;;;;;15.68;10.30;;;0.00;99.90;;;;;;4992827;28;20133;-41
2022/11/19 09:10:09;;;;;;;12.95;9.70;;;0.00;99.90;;;;;;4975000;28;20066;-40
2022/11/19 09:12:36;;;;;;;13.70;10.30;;;0.10;99.90;;;;;;4975726;28;20117;-41
2022/11/19 09:15:02;;;;;;;15.80;10.18;;;0.10;99.90;;;;;;4992289;28;20046;-41
2022/11/19 09:17:29;;;;;;;13.75;10.30;;;0.20;99.90;;;;;;4993098;28;20090;-40
2022/11/19 09:19:56;;;;;;;15.13;9.70;;;0.30;99.90;;;;;;4958915;28;20055;-42
2022/11/19 09:22:23;;;;;;;14.65;10.02;;;0.30;99.90;;;;;;4969189;28;20098;-39
2022/11/19 09:24:50;;;;;;;12.77;9.70;;;0.40;99.90;;;;;;4986558;28;20498;-40
2022/11/19 09:27:18;;;;;;;13.80;8.82;;;0.50;99.90;;;;;;4991547;28;20152;-42
2022/11/19 09:29:45;;;;;;;12.88;9.52;;;0.50;99.90;;;;;;4964794;28;20093;-41
2022/11/19 09:32:11;;;;;;;13.60;9.88;;;0.60;99.90;;;;;;4984401;28;20053;-41
2022/11/19 09:34:40;;;;;;;11.93;8.65;;;0.70;99.90;;;;;;4992599;28;20062;-41
2022/11/19 09:37:07;;;;;;;16.25;9.85;;;0.80;99.90;;;;;;4982316;28;20110;-41
2022/11/19 09:39:34;;;;;;;13.27;9.70;;;0.90;99.90;;;;;;4991921;28;20050;-41
2022/11/19 09:42:08;;;;;;;12.75;9.45;;;1.00;99.90;;;;;;4971242;28;20051;-41
2022/11/19 09:44:48;;;;;;;15.18;9.40;;;1.00;99.90;;;;;;4985918;28;20449;-41
2022/11/19 09:47:21;;;;;;;14.48;10.07;;;1.00;99.90;;;;;;4992485;28;20109;-38
2022/11/19 09:49:50;;;;;;;11.45;9.07;;;1.10;99.90;;;;;;4994836;28;20499;-41
2022/11/19 09:52:18;;;;;;;13.93;10.00;;;1.20;99.90;;;;;;4989887;28;20487;-40
2022/11/19 09:54:48;;;;;;;12.32;9.68;;;1.20;99.90;;;;;;4993319;28;20129;-40
2022/11/19 09:57:17;;;;;;;12.60;9.55;;;1.30;99.90;;;;;;4996290;28;20446;-41
2022/11/19 09:59:45;;;;;;;14.75;9.40;;;1.30;99.90;;;;;;4996192;28;20450;-41
2022/11/19 10:02:15;;;;;;;14.75;9.45;;;1.40;99.90;;;;;;4994629;28;20145;-39
2022/11/19 10:04:42;;;;;;;12.23;9.40;;;1.50;99.90;;;;;;4994569;28;20446;-40
2022/11/19 10:07:11;;;;;;;11.07;8.43;;;1.50;99.90;;;;;;4995061;28;20081;-41
2022/11/19 10:09:44;;;;;;;12.15;8.95;;;1.50;99.90;;;;;;4991033;28;20474;-42
2022/11/19 10:12:19;;;;;;;12.68;8.77;;;1.60;99.90;;;;;;4996492;28;20054;-41
2022/11/19 10:15:00;;;;;;;12.27;8.88;;;1.70;99.90;;;;;;4978707;28;20046;-40
2022/11/19 10:17:33;;;;;;;11.57;9.23;;;1.70;99.90;;;;;;4977084;28;20085;-42
2022/11/19 10:20:14;;;;;;;12.45;9.50;;;1.80;99.90;;;;;;4994317;28;20591;-42
2022/11/19 10:22:45;;;;;;;11.77;8.50;;;1.80;99.90;;;;;;4984636;28;20411;-38
2022/11/19 10:25:15;;;;;;;12.27;9.13;;;1.90;99.90;;;;;;4992556;28;20151;-40
2022/11/19 10:27:44;;;;;;;10.95;7.80;;;1.90;99.90;;;;;;4994480;28;20491;-39
2022/11/19 10:30:15;;;;;;;11.55;8.73;;;2.10;99.90;;;;;;4975498;28;20518;-41
2022/11/19 10:32:44;;;;;;;12.55;8.65;;;2.00;99.90;;;;;;4964974;28;20141;-41
2022/11/19 10:35:15;;;;;;;15.88;8.90;;;2.00;99.90;;;;;;4983463;28;20059;-41
2022/11/19 10:37:48;;;;;;;11.63;8.93;;;2.10;99.90;;;;;;4994550;28;20056;-41
2022/11/19 10:40:15;;;;;;;10.73;8.00;;;2.10;99.90;;;;;;4993301;28;20046;-41
2022/11/19 10:42:44;;;;;;;10.50;8.55;;;2.20;99.90;;;;;;4987438;28;20082;-41
2022/11/19 10:45:15;;;;;;;11.25;8.38;;;2.20;99.90;;;;;;4992535;28;20086;-40
2022/11/19 10:47:46;;;;;;;11.45;8.15;;;2.30;99.90;;;;;;4994773;28;20060;-41
2022/11/19 10:50:16;;;;;;;10.93;8.33;;;2.30;99.90;;;;;;4991945;28;20053;-41
2022/11/19 10:52:45;;;;;;;9.35;7.22;;;2.40;99.90;;;;;;4995084;28;20054;-41
2022/11/19 10:55:16;;;;;;;12.18;7.38;;;2.40;99.90;;;;;;4990490;28;20094;-40
2022/11/19 10:57:42;;;;;;;10.80;7.40;;;2.50;99.90;;;;;;4966746;28;20106;-39
2022/11/19 11:00:10;;;;;;;10.55;7.93;;;2.50;99.90;;;;;;4973540;28;20503;-37
2022/11/19 11:02:41;;;;;;;10.20;7.32;;;2.50;99.90;;;;;;4969814;28;20050;-41
2022/11/19 11:05:10;;;;;;;9.43;6.93;;;2.60;99.90;;;;;;4994713;28;20061;-40
2022/11/19 11:07:54;;;;;;;8.65;6.55;;;2.70;99.90;;;;;;4976629;28;20081;-42
2022/11/19 11:10:25;;;;;;;10.13;7.20;;;2.70;99.90;;;;;;4971398;28;20057;-41
2022/11/19 11:15:38;;;;;;;10.00;6.90;;;2.80;99.90;;;;;;4993219;28;20038;-40
2022/11/19 11:18:07;;;;;;;9.23;6.85;;;2.90;99.90;;;;;;4989234;28;20038;-42
2022/11/19 11:20:35;;;;;;;8.75;6.72;;;2.80;99.90;;;;;;4976122;28;20050;-41
2022/11/19 11:23:05;;;;;;;9.27;6.70;;;2.90;99.90;;;;;;4994724;28;20043;-40
2022/11/19 11:25:33;;;;;;;8.23;6.35;;;3.00;99.90;;;;;;4980904;28;20056;-42
2022/11/19 11:28:04;;;;;;;9.77;7.00;;;3.00;99.90;;;;;;4985400;28;20054;-41
2022/11/19 11:30:31;;;;;;;;;;;3.00;99.90;;;;;;4991426;28;20459;-40
2022/11/19 11:32:58;;;;;;;7.72;6.15;;;3.10;99.90;;;;;;4991287;28;20385;-41
2022/11/19 11:35:30;;;;;;;7.70;5.95;;;3.10;99.90;;;;;;4979307;28;20406;-41
2022/11/19 11:37:57;;;;;;;8.15;6.32;;;3.10;99.90;;;;;;4985057;28;20133;-43
2022/11/19 11:40:24;;;;;;;8.95;6.47;;;3.10;99.90;;;;;;4991804;28;20133;-41
2022/11/19 11:42:51;;;;;;;8.75;6.60;;;3.20;99.90;;;;;;4993117;28;20557;-41
2022/11/19 11:45:21;;;;;;;10.50;6.68;;;3.20;99.90;;;;;;4973573;28;20098;-39
2022/11/19 11:47:48;;;;;;;9.35;6.88;;;3.20;99.90;;;;;;4972073;28;20448;-40
2022/11/19 11:50:17;;;;;;;10.45;7.10;;;3.30;99.90;;;;;;4990860;28;20090;-41
2022/11/19 11:52:45;;;;;;;10.75;7.00;;;3.40;99.90;;;;;;4987706;28;20082;-40
2022/11/19 11:55:14;;;;;;;10.20;6.95;;;3.50;99.90;;;;;;4977212;28;20054;-43
2022/11/19 11:57:51;;;;;;;11.00;7.18;;;3.60;99.90;;;;;;4994196;28;20090;-44
2022/11/19 12:00:31;;;;;;;10.75;6.85;;;3.60;99.90;;;;;;4976881;28;20128;-44
2022/11/19 12:03:01;;;;;;;7.90;6.38;;;3.70;99.90;;;;;;4987404;28;20097;-44
2022/11/19 12:05:29;;;;;;;9.85;5.75;;;3.70;99.90;;;;;;4983824;28;20110;-43
2022/11/19 12:08:02;;;;;;;8.43;6.20;;;3.70;99.90;;;;;;4988017;28;20085;-40
2022/11/19 12:10:33;;;;;;;8.05;6.15;;;3.70;99.90;;;;;;4991080;28;20053;-40
2022/11/19 12:13:23;;;;;;;11.63;6.25;;;3.70;99.90;;;;;;4994741;28;20050;-43
2022/11/19 12:15:53;;;;;;;8.70;6.10;;;3.70;99.90;;;;;;4991728;28;20506;-44
2022/11/19 12:18:23;;;;;;;9.63;6.45;;;3.70;99.90;;;;;;4992169;28;20085;-43
2022/11/19 12:20:53;;;;;;;8.23;6.70;;;3.70;99.90;;;;;;4992750;28;20128;-45
2022/11/19 12:23:31;;;;;;;7.75;6.47;;;3.80;99.90;;;;;;4976413;28;20081;-44
2022/11/19 12:26:03;;;;;;;9.15;5.85;;;3.70;99.90;;;;;;4993275;28;20062;-44
2022/11/19 12:28:40;;;;;;;10.52;6.95;;;3.70;99.90;;;;;;4996781;28;20096;-44
2022/11/19 12:31:13;;;;;;;10.77;7.80;;;3.80;99.90;;;;;;4999657;28;20093;-43
2022/11/19 12:33:47;;;;;;;8.20;6.20;;;3.80;99.90;;;;;;4988772;28;20447;-44
2022/11/19 12:36:18;;;;;;;10.13;6.88;;;3.80;99.90;;;;;;4976376;28;20391;-43
2022/11/19 12:38:50;;;;;;;10.77;6.20;;;3.90;99.90;;;;;;4976396;28;20133;-41
2022/11/19 12:41:35;;;;;;;8.20;5.68;;;3.80;99.90;;;;;;4975709;28;20330;-44
2022/11/19 12:44:03;;;;;;;7.32;5.50;;;3.90;99.90;;;;;;4964743;28;20055;-41
2022/11/19 12:46:38;;;;;;;8.90;6.18;;;3.90;99.90;;;;;;4991220;28;20133;-45
2022/11/19 12:49:28;;;;;;;8.65;6.07;;;3.90;99.90;;;;;;4983495;28;20110;-44
2022/11/19 12:51:57;;;;;;;6.90;5.55;;;3.90;99.90;;;;;;4989212;28;20054;-40
2022/11/19 12:54:31;;;;;;;7.50;5.60;;;3.90;99.90;;;;;;4983412;28;20074;-39
2022/11/19 12:57:03;;;;;;;8.60;5.68;;;3.90;99.90;;;;;;4965047;28;20089;-43
2022/11/19 12:59:38;;;;;;;7.95;5.88;;;3.90;99.90;;;;;;4971345;28;20135;-43
2022/11/19 13:02:14;;;;;;;8.10;5.93;;;3.80;99.90;;;;;;4993961;28;20155;-45
2022/11/19 13:04:43;;;;;;;9.35;6.05;;;3.90;99.90;;;;;;5012782;28;20061;-42
2022/11/19 13:07:12;;;;;;;9.85;6.35;;;3.90;99.90;;;;;;5010785;28;20486;-40
2022/11/19 13:09:43;;;;;;;7.53;5.43;;;4.00;99.90;;;;;;5012254;28;20054;-45
2022/11/19 13:12:11;;;;;;;7.40;5.80;;;3.90;99.90;;;;;;5007235;28;20057;-41